Login to view Products
 
Tuesday, June 15, 2021 (16:52 UTC) 16
Fujairah International Airport
ICAO: OMFJ
IATA: FJR
  • METAR OMFJ 151600Z 30014KT 6000 NSC 43/11 Q0994 A2935=
  • TAF OMFJ 151100Z 1512/1618 09009KT 7000 NSC BECMG 1512/1514 30012KT PROB30 1515/1601 30016G28KT 4000 BLDU BECMG 1605/1607 08008KT=

2